createdAt,value
2023-01-21T00:01:19.704Z,11.85
2023-01-21T00:03:46.955Z,9.90
2023-01-21T00:06:18.383Z,10.23
2023-01-21T00:08:48.382Z,6.82
2023-01-21T00:11:16.069Z,5.05
2023-01-21T00:13:44.406Z,6.38
2023-01-21T00:16:12.062Z,4.47
2023-01-21T00:18:40.051Z,5.55
2023-01-21T00:21:07.549Z,4.22
2023-01-21T00:23:35.290Z,3.33
2023-01-21T00:26:04.933Z,4.22
2023-01-21T00:28:34.961Z,3.05
2023-01-21T00:31:07.347Z,3.35
2023-01-21T00:33:35.619Z,3.13
2023-01-21T00:36:05.084Z,2.95
2023-01-21T00:38:32.567Z,2.20
2023-01-21T00:41:04.427Z,3.05
2023-01-21T00:43:32.267Z,2.92
2023-01-21T00:45:59.464Z,1.38
2023-01-21T00:48:28.392Z,2.92
2023-01-21T00:51:00.876Z,2.47
2023-01-21T00:53:30.703Z,2.50
2023-01-21T00:56:06.977Z,2.17
2023-01-21T00:58:34.686Z,2.20
2023-01-21T01:01:19.484Z,2.20
2023-01-21T01:03:48.001Z,1.50
2023-01-21T01:06:25.379Z,1.50
2023-01-21T01:08:58.027Z,1.90
2023-01-21T01:11:28.971Z,2.58
2023-01-21T01:14:00.113Z,1.50
2023-01-21T01:16:27.528Z,1.77
2023-01-21T01:18:56.030Z,3.90
2023-01-21T01:21:23.879Z,3.70
2023-01-21T01:23:54.877Z,4.00
2023-01-21T01:26:27.778Z,3.20
2023-01-21T01:28:55.259Z,4.20
2023-01-21T01:31:28.344Z,3.83
2023-01-21T01:33:58.522Z,3.65
2023-01-21T01:36:26.198Z,3.22
2023-01-21T01:38:54.289Z,3.08
2023-01-21T01:41:30.286Z,3.70
2023-01-21T01:44:01.666Z,3.78
2023-01-21T01:46:34.181Z,4.30
2023-01-21T01:49:23.397Z,3.97
2023-01-21T01:51:57.479Z,4.68
2023-01-21T01:54:38.630Z,4.10
2023-01-21T01:57:12.141Z,2.33
2023-01-21T01:59:52.167Z,4.03
2023-01-21T02:02:23.875Z,4.30
2023-01-21T02:04:56.200Z,4.05
2023-01-21T02:07:34.346Z,3.92
2023-01-21T02:10:05.153Z,3.47
2023-01-21T02:12:33.411Z,4.13
2023-01-21T02:15:01.356Z,3.95
2023-01-21T02:17:37.530Z,3.17
2023-01-21T02:20:05.275Z,3.50
2023-01-21T02:22:50.859Z,3.72
2023-01-21T02:25:41.767Z,4.07
2023-01-21T02:28:47.208Z,3.47
2023-01-21T02:31:29.059Z,3.72
2023-01-21T02:34:02.412Z,3.83
2023-01-21T02:36:51.176Z,4.00
2023-01-21T02:39:24.099Z,3.72
2023-01-21T02:42:07.336Z,3.53
2023-01-21T02:44:39.906Z,3.75
2023-01-21T02:47:31.265Z,3.30
2023-01-21T02:50:04.284Z,3.20
2023-01-21T02:52:31.439Z,3.83
2023-01-21T02:55:01.573Z,4.03
2023-01-21T02:57:50.741Z,4.18
2023-01-21T03:00:31.274Z,3.75
2023-01-21T03:02:58.838Z,3.75
2023-01-21T03:05:59.554Z,3.90
2023-01-21T03:09:08.347Z,3.28
2023-01-21T03:11:35.779Z,4.15
2023-01-21T03:14:40.410Z,3.47
2023-01-21T03:17:19.228Z,4.22
2023-01-21T03:19:53.323Z,4.03
2023-01-21T03:22:24.960Z,3.78
2023-01-21T03:24:54.766Z,3.75
2023-01-21T03:27:25.360Z,3.70
2023-01-21T03:29:57.577Z,3.30
2023-01-21T03:32:28.468Z,3.83
2023-01-21T03:34:56.893Z,3.85
2023-01-21T03:37:40.069Z,3.67
2023-01-21T03:40:19.631Z,3.58
2023-01-21T03:42:50.764Z,2.80
2023-01-21T03:45:26.631Z,3.38
2023-01-21T03:47:58.916Z,3.50
2023-01-21T03:50:30.078Z,2.95
2023-01-21T03:52:57.557Z,3.63
2023-01-21T03:55:24.680Z,3.03
2023-01-21T03:57:51.781Z,3.88
2023-01-21T04:00:19.611Z,3.40
2023-01-21T04:02:49.904Z,3.15
2023-01-21T04:05:17.309Z,2.97
2023-01-21T04:07:44.493Z,3.22
2023-01-21T04:10:12.535Z,3.08
2023-01-21T04:12:40.843Z,3.50
2023-01-21T04:15:08.820Z,3.65
2023-01-21T04:17:38.034Z,3.17
2023-01-21T04:20:08.850Z,3.67
2023-01-21T04:22:36.467Z,3.53
2023-01-21T04:25:06.731Z,3.33
2023-01-21T04:27:33.708Z,3.42
2023-01-21T04:30:01.085Z,3.03
2023-01-21T04:32:28.632Z,3.78
2023-01-21T04:34:55.955Z,3.33
2023-01-21T04:37:23.501Z,3.33
2023-01-21T04:39:51.018Z,3.97
2023-01-21T04:42:18.175Z,4.18
2023-01-21T04:44:45.717Z,3.45
2023-01-21T04:47:15.603Z,3.47
2023-01-21T04:49:45.750Z,3.70
2023-01-21T04:52:12.814Z,3.58
2023-01-21T04:54:42.142Z,3.30
2023-01-21T04:57:11.888Z,3.53
2023-01-21T04:59:39.012Z,3.75
2023-01-21T05:02:08.654Z,3.53
2023-01-21T05:04:35.906Z,3.33
2023-01-21T05:07:03.317Z,3.63
2023-01-21T05:09:30.609Z,3.60
2023-01-21T05:11:59.650Z,2.72
2023-01-21T05:14:26.672Z,2.88
2023-01-21T05:16:53.766Z,3.65
2023-01-21T05:19:21.099Z,3.20
2023-01-21T05:21:48.068Z,3.38
2023-01-21T05:24:15.047Z,4.05
2023-01-21T05:26:42.197Z,3.88
2023-01-21T05:29:09.529Z,3.90
2023-01-21T05:31:39.428Z,3.72
2023-01-21T05:34:06.930Z,3.92
2023-01-21T05:36:33.957Z,4.80
2023-01-21T05:39:01.467Z,4.88
2023-01-21T05:41:30.377Z,5.55
2023-01-21T05:43:57.942Z,5.45
2023-01-21T05:46:25.187Z,6.18
2023-01-21T05:48:52.645Z,6.18
2023-01-21T05:51:19.714Z,6.82
2023-01-21T05:53:46.818Z,5.68
2023-01-21T05:56:13.866Z,6.57
2023-01-21T05:58:41.441Z,5.68
2023-01-21T06:01:08.487Z,6.97
2023-01-21T06:03:36.601Z,7.68
2023-01-21T06:06:07.492Z,8.45
2023-01-21T06:08:34.732Z,8.77
2023-01-21T06:11:02.689Z,8.10
2023-01-21T06:13:31.172Z,9.70
2023-01-21T06:16:01.938Z,8.55
2023-01-21T06:18:32.146Z,10.05
2023-01-21T06:21:00.858Z,9.98
2023-01-21T06:23:28.552Z,9.48
2023-01-21T06:26:03.015Z,9.98
2023-01-21T06:31:41.243Z,9.63
2023-01-21T06:34:15.414Z,8.82
2023-01-21T06:36:44.239Z,10.05
2023-01-21T06:39:11.885Z,10.80
2023-01-21T06:41:39.448Z,10.38
2023-01-21T06:44:07.155Z,9.68
2023-01-21T06:46:43.367Z,8.43
2023-01-21T06:49:31.279Z,9.45
2023-01-21T06:52:23.547Z,9.02
2023-01-21T06:54:59.641Z,10.15
2023-01-21T06:57:30.970Z,8.82
2023-01-21T06:59:58.711Z,9.85
2023-01-21T07:02:31.017Z,9.30
2023-01-21T07:05:01.179Z,9.57
2023-01-21T07:07:28.303Z,8.85
2023-01-21T07:09:55.452Z,8.35
2023-01-21T07:12:22.734Z,9.93
2023-01-21T07:14:49.700Z,8.80
2023-01-21T07:17:17.070Z,9.88
2023-01-21T07:19:51.394Z,7.82
2023-01-21T07:22:22.113Z,9.50
2023-01-21T07:24:49.601Z,8.02
2023-01-21T07:27:17.095Z,7.82
2023-01-21T07:29:44.238Z,7.60
2023-01-21T07:32:13.873Z,8.73
2023-01-21T07:34:43.667Z,8.45
2023-01-21T07:37:11.284Z,7.68
2023-01-21T07:39:55.091Z,8.40
2023-01-21T07:42:28.802Z,8.25
2023-01-21T07:45:02.835Z,8.80
2023-01-21T07:47:37.523Z,7.82
2023-01-21T07:50:11.262Z,7.10
2023-01-21T07:52:43.063Z,9.10
2023-01-21T07:55:16.665Z,7.47
2023-01-21T07:57:44.081Z,7.85
2023-01-21T08:00:11.734Z,8.32
2023-01-21T08:02:39.574Z,8.52
2023-01-21T08:05:07.703Z,8.68
2023-01-21T08:07:38.809Z,8.75
2023-01-21T08:10:09.860Z,9.60
2023-01-21T08:12:41.611Z,8.57
2023-01-21T08:15:16.732Z,9.05
2023-01-21T08:17:51.091Z,8.38
2023-01-21T08:20:46.798Z,8.00
2023-01-21T08:23:37.714Z,8.40
2023-01-21T08:26:08.913Z,8.88
2023-01-21T08:28:42.693Z,9.57
2023-01-21T08:31:20.552Z,9.25
2023-01-21T08:33:48.052Z,9.50
2023-01-21T08:36:15.754Z,8.93
2023-01-21T08:38:48.420Z,9.90
2023-01-21T08:41:19.078Z,8.85
2023-01-21T08:43:56.528Z,10.23
2023-01-21T08:46:29.374Z,9.38
2023-01-21T08:48:56.677Z,8.70
2023-01-21T08:51:24.452Z,8.80
2023-01-21T08:53:53.615Z,8.65
2023-01-21T08:56:21.185Z,9.50
2023-01-21T08:58:50.562Z,7.88
2023-01-21T09:01:18.101Z,9.15
2023-01-21T09:03:45.354Z,8.25
2023-01-21T09:06:12.692Z,8.07
2023-01-21T09:08:43.355Z,7.82
2023-01-21T09:11:14.009Z,8.07
2023-01-21T09:13:43.165Z,7.30
2023-01-21T09:16:16.130Z,7.65
2023-01-21T09:18:43.877Z,6.75
2023-01-21T09:21:20.825Z,6.90
2023-01-21T09:23:48.288Z,5.68
2023-01-21T09:26:20.793Z,5.22
2023-01-21T09:31:26.416Z,4.75
2023-01-21T09:33:57.109Z,3.50
2023-01-21T09:36:29.260Z,4.57
2023-01-21T09:38:56.376Z,4.22
2023-01-21T09:41:31.499Z,3.63
2023-01-21T09:44:20.472Z,4.85
2023-01-21T09:47:06.621Z,4.35
2023-01-21T09:49:43.380Z,4.82
2023-01-21T09:52:23.614Z,4.05
2023-01-21T09:54:52.785Z,3.78
2023-01-21T09:57:37.304Z,4.63
2023-01-21T10:00:23.799Z,3.38
2023-01-21T10:03:14.874Z,5.40
2023-01-21T10:06:00.987Z,4.15
2023-01-21T10:09:04.860Z,4.82
2023-01-21T10:11:38.364Z,4.18
2023-01-21T10:14:30.017Z,5.38
2023-01-21T10:17:18.295Z,5.90
2023-01-21T10:19:55.366Z,4.40
2023-01-21T10:22:34.758Z,6.25
2023-01-21T10:25:13.863Z,5.28
2023-01-21T10:27:42.797Z,6.53
2023-01-21T10:30:23.906Z,5.75
2023-01-21T10:32:53.232Z,4.70
2023-01-21T10:35:47.957Z,8.38
2023-01-21T10:38:34.043Z,5.90
2023-01-21T10:41:33.524Z,5.38
2023-01-21T10:44:14.089Z,6.57
2023-01-21T10:46:50.104Z,3.80
2023-01-21T10:49:50.268Z,6.68
2023-01-21T10:52:52.079Z,6.45
2023-01-21T10:55:34.366Z,5.13
2023-01-21T10:58:14.616Z,6.05
2023-01-21T11:00:47.450Z,5.95
2023-01-21T11:03:25.518Z,5.20
2023-01-21T11:05:53.165Z,5.10
2023-01-21T11:08:26.051Z,4.05
2023-01-21T11:10:55.414Z,3.15
2023-01-21T11:13:23.667Z,4.95
2023-01-21T11:15:57.296Z,2.95
2023-01-21T11:18:40.794Z,2.20
2023-01-21T11:21:23.320Z,3.13
2023-01-21T11:26:34.072Z,3.70
2023-01-21T11:29:09.289Z,3.95
2023-01-21T11:31:37.163Z,3.83
2023-01-21T11:34:18.603Z,2.10
2023-01-21T11:37:06.906Z,3.30
2023-01-21T11:39:52.268Z,3.03
2023-01-21T11:42:20.029Z,3.05
2023-01-21T11:44:55.616Z,2.72
2023-01-21T11:47:38.709Z,2.58
2023-01-21T11:50:13.142Z,3.15
2023-01-21T11:52:40.232Z,2.15
2023-01-21T11:55:22.720Z,2.90
2023-01-21T11:57:53.247Z,2.90
2023-01-21T12:00:25.265Z,2.10
2023-01-21T12:02:56.902Z,1.50
2023-01-21T12:05:34.777Z,2.88
2023-01-21T12:08:04.756Z,2.30
2023-01-21T12:13:37.412Z,2.72
2023-01-21T12:16:20.853Z,2.80
2023-01-21T12:19:10.033Z,2.83
2023-01-21T12:21:56.822Z,3.15
2023-01-21T12:24:39.112Z,1.92
2023-01-21T12:27:32.708Z,2.05
2023-01-21T12:30:21.469Z,2.20
2023-01-21T12:35:36.633Z,2.38
2023-01-21T12:38:11.022Z,2.22
2023-01-21T12:40:45.925Z,1.50
2023-01-21T12:43:20.918Z,1.58
2023-01-21T12:46:11.793Z,1.90
2023-01-21T12:48:47.025Z,2.30
2023-01-21T12:51:23.680Z,2.63
2023-01-21T12:54:21.365Z,2.50
2023-01-21T12:56:57.271Z,3.00
2023-01-21T12:59:51.449Z,1.73
2023-01-21T13:02:26.308Z,3.15
2023-01-21T13:05:05.409Z,2.60
2023-01-21T13:07:47.760Z,2.80
2023-01-21T13:10:17.700Z,1.33
2023-01-21T13:12:49.902Z,2.35
2023-01-21T13:15:20.927Z,1.67
2023-01-21T13:17:55.560Z,2.13
2023-01-21T13:20:23.925Z,1.55
2023-01-21T13:23:09.460Z,2.30
2023-01-21T13:25:59.323Z,2.17
2023-01-21T13:28:45.848Z,1.52
2023-01-21T13:31:34.056Z,2.20
2023-01-21T13:34:13.045Z,3.05
2023-01-21T13:37:02.968Z,1.85
2023-01-21T13:42:16.261Z,1.30
2023-01-21T13:45:05.384Z,1.20
2023-01-21T13:47:49.398Z,2.67
2023-01-21T13:50:41.916Z,2.17
2023-01-21T13:53:24.506Z,2.63
2023-01-21T13:55:58.083Z,1.42
2023-01-21T13:58:41.062Z,2.10
2023-01-21T14:01:25.090Z,1.30
2023-01-21T14:04:04.793Z,2.15
2023-01-21T14:06:33.057Z,1.90
2023-01-21T14:09:29.634Z,1.55
2023-01-21T14:11:58.296Z,1.20
2023-01-21T14:14:49.210Z,1.50
2023-01-21T14:17:19.133Z,2.55
2023-01-21T14:20:18.222Z,1.23
2023-01-21T14:23:04.175Z,2.40
2023-01-21T14:26:08.891Z,1.63
2023-01-21T14:28:51.682Z,2.10
2023-01-21T14:31:24.180Z,2.53
2023-01-21T14:33:54.162Z,1.45
2023-01-21T14:36:40.803Z,2.00
2023-01-21T14:39:31.833Z,1.40
2023-01-21T14:42:13.319Z,1.60
2023-01-21T14:44:49.546Z,2.60
2023-01-21T14:47:19.897Z,1.80
2023-01-21T14:49:54.207Z,1.65
2023-01-21T14:52:43.939Z,2.05
2023-01-21T14:55:27.850Z,2.38
2023-01-21T14:57:57.350Z,2.10
2023-01-21T15:00:30.189Z,1.92
2023-01-21T15:03:29.845Z,1.80
2023-01-21T15:06:09.359Z,1.85
2023-01-21T15:08:46.884Z,2.42
2023-01-21T15:11:37.659Z,2.08
2023-01-21T15:14:21.949Z,1.77
2023-01-21T15:16:49.361Z,1.83
2023-01-21T15:19:23.060Z,1.67
2023-01-21T15:22:10.216Z,1.77
2023-01-21T15:24:37.499Z,2.88
2023-01-21T15:27:28.313Z,0.95
2023-01-21T15:30:00.570Z,1.95
2023-01-21T15:32:32.403Z,1.63
2023-01-21T15:35:22.732Z,2.25
2023-01-21T15:38:02.953Z,0.82
2023-01-21T15:41:05.827Z,1.55
2023-01-21T15:43:56.707Z,1.77
2023-01-21T15:46:32.748Z,1.45
2023-01-21T15:49:13.970Z,1.13
2023-01-21T15:52:06.063Z,2.90
2023-01-21T15:54:33.614Z,2.38
2023-01-21T16:00:10.213Z,1.85
2023-01-21T16:02:59.351Z,2.30
2023-01-21T16:05:48.158Z,2.17
2023-01-21T16:08:44.121Z,1.75
2023-01-21T16:11:41.140Z,2.60
2023-01-21T16:14:14.524Z,3.03
2023-01-21T16:17:15.616Z,1.88
2023-01-21T16:19:46.150Z,1.77
2023-01-21T16:22:19.067Z,3.53
2023-01-21T16:24:52.376Z,1.98
2023-01-21T16:27:28.404Z,2.78
2023-01-21T16:30:00.410Z,1.73
2023-01-21T16:32:27.991Z,1.48
2023-01-21T16:34:55.032Z,2.83
2023-01-21T16:37:27.299Z,2.33
2023-01-21T16:39:58.268Z,1.85
2023-01-21T16:42:33.107Z,2.97
2023-01-21T16:45:01.049Z,1.70
2023-01-21T16:47:36.414Z,3.67
2023-01-21T16:50:05.593Z,2.80
2023-01-21T16:52:32.995Z,3.25
2023-01-21T16:55:00.267Z,2.95
2023-01-21T16:57:31.811Z,2.17
2023-01-21T17:00:02.190Z,2.78
2023-01-21T17:02:32.840Z,2.42
2023-01-21T17:05:04.597Z,2.70
2023-01-21T17:07:34.991Z,2.03
2023-01-21T17:12:30.870Z,2.08
2023-01-21T17:15:02.024Z,3.28
2023-01-21T17:17:34.333Z,3.38
2023-01-21T17:20:01.984Z,2.70
2023-01-21T17:22:33.418Z,4.43
2023-01-21T17:25:00.948Z,3.58
2023-01-21T17:27:28.837Z,3.40
2023-01-21T17:30:25.344Z,1.70
2023-01-21T17:32:58.421Z,3.35
2023-01-21T17:35:27.384Z,4.15
2023-01-21T17:37:54.997Z,2.88
2023-01-21T17:40:45.540Z,1.67
2023-01-21T17:43:26.058Z,4.15
2023-01-21T17:45:55.500Z,3.70
2023-01-21T17:48:37.765Z,3.05
2023-01-21T17:51:31.873Z,4.15
2023-01-21T17:54:06.453Z,2.95
2023-01-21T17:56:38.102Z,2.20
2023-01-21T17:59:25.979Z,3.90
2023-01-21T18:01:56.216Z,2.72
2023-01-21T18:04:23.372Z,3.05
2023-01-21T18:06:53.057Z,2.40
2023-01-21T18:09:28.029Z,2.97
2023-01-21T18:11:57.846Z,2.53
2023-01-21T18:14:26.295Z,3.17
2023-01-21T18:16:54.335Z,3.13
2023-01-21T18:19:36.015Z,4.32
2023-01-21T18:22:06.159Z,3.15
2023-01-21T18:24:35.481Z,2.97
2023-01-21T18:27:03.248Z,3.33
2023-01-21T18:29:31.054Z,3.55
2023-01-21T18:31:58.875Z,2.88
2023-01-21T18:34:26.352Z,2.17
2023-01-21T18:37:00.546Z,2.05
2023-01-21T18:39:27.666Z,2.35
2023-01-21T18:41:54.661Z,3.90
2023-01-21T18:44:21.888Z,2.28
2023-01-21T18:46:49.436Z,2.40
2023-01-21T18:49:18.763Z,3.13
2023-01-21T18:51:46.372Z,1.75
2023-01-21T18:54:15.877Z,1.83
2023-01-21T18:56:44.232Z,2.72
2023-01-21T18:59:19.224Z,2.75
2023-01-21T19:01:46.280Z,2.55
2023-01-21T19:04:15.821Z,2.20
2023-01-21T19:06:43.192Z,2.45
2023-01-21T19:09:35.726Z,1.92
2023-01-21T19:12:03.118Z,2.60
2023-01-21T19:14:30.180Z,1.35
2023-01-21T19:16:57.115Z,2.13
2023-01-21T19:19:25.497Z,3.33
2023-01-21T19:21:53.362Z,2.30
2023-01-21T19:24:20.784Z,2.70
2023-01-21T19:26:47.908Z,1.17
2023-01-21T19:29:16.509Z,2.25
2023-01-21T19:31:43.666Z,2.70
2023-01-21T19:34:10.694Z,4.30
2023-01-21T19:36:39.306Z,5.20
2023-01-21T19:39:19.243Z,3.88
2023-01-21T19:41:46.375Z,4.53
2023-01-21T19:44:13.513Z,3.38
2023-01-21T19:46:40.825Z,4.45
2023-01-21T19:49:16.159Z,3.05
2023-01-21T19:51:44.296Z,4.95
2023-01-21T19:54:11.563Z,2.08
2023-01-21T19:56:39.021Z,6.00
2023-01-21T19:59:06.214Z,2.65
2023-01-21T20:01:33.670Z,3.90
2023-01-21T20:04:03.758Z,2.42
2023-01-21T20:06:38.198Z,3.45
2023-01-21T20:09:14.688Z,2.67
2023-01-21T20:11:42.655Z,2.88
2023-01-21T20:14:10.415Z,2.88
2023-01-21T20:16:47.702Z,3.67
2023-01-21T20:19:17.696Z,2.50
2023-01-21T20:24:30.139Z,3.05
2023-01-21T20:26:58.749Z,1.85
2023-01-21T20:29:27.046Z,1.83
2023-01-21T20:31:54.535Z,1.65
2023-01-21T20:34:21.751Z,2.10
2023-01-21T20:36:50.868Z,2.35
2023-01-21T20:39:17.895Z,1.80
2023-01-21T20:41:44.900Z,1.67
2023-01-21T20:44:12.083Z,1.92
2023-01-21T20:46:43.356Z,1.33
2023-01-21T20:49:11.847Z,1.02
2023-01-21T20:51:39.339Z,1.05
2023-01-21T20:54:06.811Z,1.63
2023-01-21T20:56:33.881Z,2.22
2023-01-21T20:59:01.135Z,1.85
2023-01-21T21:01:29.242Z,0.32
2023-01-21T21:03:56.138Z,1.95
2023-01-21T21:06:26.020Z,1.27
2023-01-21T21:08:53.271Z,2.03
2023-01-21T21:11:20.650Z,1.83
2023-01-21T21:13:51.812Z,1.75
2023-01-21T21:16:28.668Z,1.52
2023-01-21T21:18:56.386Z,2.15
2023-01-21T21:21:24.089Z,1.30
2023-01-21T21:23:52.648Z,1.90
2023-01-21T21:26:24.246Z,2.03
2023-01-21T21:28:57.327Z,1.33
2023-01-21T21:31:26.069Z,1.70
2023-01-21T21:33:53.621Z,1.60
2023-01-21T21:36:23.808Z,1.20
2023-01-21T21:38:52.462Z,0.73
2023-01-21T21:41:41.191Z,1.55
2023-01-21T21:44:09.394Z,1.83
2023-01-21T21:46:55.998Z,0.80
2023-01-21T21:49:23.355Z,1.05
2023-01-21T21:51:50.405Z,1.08
2023-01-21T21:54:18.497Z,1.52
2023-01-21T21:56:45.900Z,1.30
2023-01-21T21:59:13.341Z,1.40
2023-01-21T22:01:42.633Z,0.88
2023-01-21T22:04:09.781Z,1.92
2023-01-21T22:06:37.384Z,1.55
2023-01-21T22:09:05.339Z,0.93
2023-01-21T22:11:33.089Z,1.23
2023-01-21T22:14:04.328Z,0.63
2023-01-21T22:16:32.388Z,1.85
2023-01-21T22:19:00.331Z,1.25
2023-01-21T22:21:34.227Z,1.27
2023-01-21T22:24:08.428Z,1.42
2023-01-21T22:26:36.041Z,1.05
2023-01-21T22:29:04.242Z,1.50
2023-01-21T22:31:32.485Z,2.03
2023-01-21T22:34:02.953Z,1.58
2023-01-21T22:36:31.230Z,1.90
2023-01-21T22:38:58.798Z,1.33
2023-01-21T22:41:26.205Z,1.60
2023-01-21T22:43:54.416Z,1.55
2023-01-21T22:46:27.123Z,1.73
2023-01-21T22:48:54.873Z,2.17
2023-01-21T22:51:23.178Z,1.92
2023-01-21T22:53:51.287Z,3.42
2023-01-21T22:56:23.413Z,1.63
2023-01-21T22:58:50.826Z,2.30
2023-01-21T23:01:29.545Z,1.75
2023-01-21T23:04:00.372Z,1.30
2023-01-21T23:06:30.468Z,2.10
2023-01-21T23:08:57.847Z,2.15
2023-01-21T23:11:25.292Z,1.85
2023-01-21T23:13:54.149Z,1.65
2023-01-21T23:16:21.437Z,1.65
2023-01-21T23:18:49.064Z,2.17
2023-01-21T23:21:19.312Z,1.58
2023-01-21T23:23:46.851Z,1.13
2023-01-21T23:26:14.747Z,1.70
2023-01-21T23:28:43.067Z,2.28
2023-01-21T23:31:14.047Z,2.75
2023-01-21T23:33:41.820Z,1.60
2023-01-21T23:36:12.931Z,1.70
2023-01-21T23:38:41.399Z,2.33
2023-01-21T23:41:10.532Z,1.45
2023-01-21T23:43:38.326Z,2.30
2023-01-21T23:46:07.191Z,1.85
2023-01-21T23:48:34.319Z,2.83
2023-01-21T23:51:03.906Z,3.03
2023-01-21T23:53:31.936Z,3.35
2023-01-21T23:56:14.694Z,3.08
2023-01-21T23:58:41.948Z,3.10
